Time;durP1;ratioP1;P1;durP2;ratioP2;P2;SDS_P1;SDS_P2;PMS_P1;PMS_P2;Temp;Humidity;BMP_temperature;BMP_pressure;BME280_temperature;BME280_humidity;BME280_pressure;Samples;Min_cycle;Max_cycle;Signal;HPM_P1;HPM_P2
2021/07/16 00:00:16;;;;;;;1.25;0.57;;;;;;;15.63;90.41;96492.28;5073567;28;20032;-75
2021/07/16 00:02:45;;;;;;;0.35;0.35;;;;;;;15.62;90.34;96493.31;5073458;28;20036;-75
2021/07/16 00:05:14;;;;;;;0.47;0.47;;;;;;;15.61;90.36;96500.44;5072918;28;20025;-75
2021/07/16 00:07:42;;;;;;;1.05;0.50;;;;;;;15.60;90.32;96501.50;5073974;28;20436;-75
2021/07/16 00:10:14;;;;;;;0.73;0.50;;;;;;;15.56;90.24;96489.81;5073288;28;20043;-75
2021/07/16 00:12:46;;;;;;;0.50;0.50;;;;;;;15.55;90.19;96498.78;5073683;28;20036;-75
2021/07/16 00:15:15;;;;;;;1.73;0.70;;;;;;;15.55;90.29;96503.28;5072507;28;20055;-75
2021/07/16 00:17:45;;;;;;;2.17;0.60;;;;;;;15.51;90.17;96499.53;5072311;28;20044;-76
2021/07/16 00:20:14;;;;;;;0.57;0.57;;;;;;;15.48;89.89;96497.41;5073494;28;20040;-75
2021/07/16 00:22:42;;;;;;;0.85;0.60;;;;;;;15.43;90.12;96496.28;5073115;28;20036;-75
2021/07/16 00:25:11;;;;;;;0.65;0.52;;;;;;;15.42;89.99;96510.53;5072619;28;20032;-75
2021/07/16 00:27:39;;;;;;;0.73;0.73;;;;;;;15.40;89.94;96509.19;5072877;28;20044;-75
2021/07/16 00:30:08;;;;;;;2.10;0.88;;;;;;;15.36;89.76;96500.97;5073068;28;20361;-75
2021/07/16 00:32:35;;;;;;;1.92;0.60;;;;;;;15.33;89.67;96500.66;5073197;28;20395;-75
2021/07/16 00:35:05;;;;;;;0.50;0.50;;;;;;;15.31;89.73;96508.03;5073475;28;20388;-75
2021/07/16 00:37:32;;;;;;;1.10;0.60;;;;;;;15.26;89.59;96510.59;5072587;28;20045;-75
2021/07/16 00:40:00;;;;;;;0.70;0.70;;;;;;;15.22;89.61;96513.75;5075746;28;20384;-75
2021/07/16 00:42:28;;;;;;;2.30;0.80;;;;;;;15.19;89.66;96516.09;5076926;28;20036;-75
2021/07/16 00:45:09;;;;;;;0.60;0.60;;;;;;;15.16;89.32;96514.72;5075938;28;20044;-75
2021/07/16 00:47:38;;;;;;;2.15;0.70;;;;;;;15.13;89.44;96512.56;5076529;28;20063;-75
2021/07/16 00:50:09;;;;;;;2.80;0.82;;;;;;;15.10;89.32;96514.88;5077059;28;20376;-75
2021/07/16 00:52:39;;;;;;;1.08;0.70;;;;;;;15.08;89.27;96514.38;5077509;28;20033;-75
2021/07/16 00:55:08;;;;;;;1.73;0.80;;;;;;;15.05;89.21;96518.28;5076286;28;20044;-75
2021/07/16 00:57:37;;;;;;;0.57;0.57;;;;;;;15.01;89.29;96517.16;5077034;28;20025;-75
2021/07/16 01:00:07;;;;;;;2.63;0.70;;;;;;;14.98;89.08;96522.94;5075764;28;20041;-75
2021/07/16 01:02:38;;;;;;;0.73;0.70;;;;;;;14.96;89.05;96528.47;5076797;28;20453;-75
2021/07/16 01:05:07;;;;;;;4.10;1.10;;;;;;;14.91;88.95;96528.41;5067802;28;20465;-75
2021/07/16 01:07:36;;;;;;;1.80;0.80;;;;;;;14.87;89.14;96529.13;5076061;28;20398;-75
2021/07/16 01:10:06;;;;;;;4.15;1.00;;;;;;;14.83;88.98;96534.09;5076024;28;20052;-75
2021/07/16 01:12:35;;;;;;;1.40;0.75;;;;;;;14.80;88.99;96538.03;5076338;28;20453;-75
2021/07/16 01:15:04;;;;;;;0.85;0.73;;;;;;;14.78;88.86;96542.75;5076114;28;20451;-75
2021/07/16 01:17:32;;;;;;;1.27;0.85;;;;;;;14.75;89.34;96545.84;5076027;28;20044;-75
2021/07/16 01:20:09;;;;;;;2.10;0.98;;;;;;;14.75;89.64;96547.69;5076397;28;20047;-75
2021/07/16 01:22:40;;;;;;;2.03;1.05;;;;;;;14.75;89.76;96542.44;5076441;28;20033;-75
2021/07/16 01:25:12;;;;;;;2.80;1.00;;;;;;;14.74;89.78;96535.53;5076577;28;20033;-75
2021/07/16 01:27:41;;;;;;;1.48;0.95;;;;;;;14.75;89.95;96542.44;5075327;28;20055;-75
2021/07/16 01:30:11;;;;;;;1.38;1.00;;;;;;;14.74;89.86;96536.34;5075330;28;20044;-76
2021/07/16 01:32:40;;;;;;;3.38;1.17;;;;;;;14.74;90.01;96546.91;5075219;28;20044;-75
2021/07/16 01:35:09;;;;;;;1.63;0.90;;;;;;;14.73;90.04;96541.88;5075637;28;20028;-75
2021/07/16 01:37:38;;;;;;;2.30;1.00;;;;;;;14.72;90.05;96537.59;5075280;28;20040;-75
2021/07/16 01:40:21;;;;;;;1.27;0.90;;;;;;;14.69;90.30;96538.91;5075077;28;20048;-75
2021/07/16 01:42:56;;;;;;;0.80;0.80;;;;;;;14.68;90.19;96534.69;5075488;28;20036;-75
2021/07/16 01:45:30;;;;;;;1.80;0.90;;;;;;;14.67;90.25;96540.97;5067580;28;20045;-75
2021/07/16 01:47:59;;;;;;;2.40;1.10;;;;;;;14.65;90.14;96540.41;5075841;28;20052;-75
2021/07/16 01:50:28;;;;;;;2.45;0.88;;;;;;;14.63;90.21;96539.06;5074811;28;20449;-75
2021/07/16 01:52:55;;;;;;;1.92;0.70;;;;;;;14.61;90.35;96534.84;5075799;28;20053;-75
2021/07/16 01:55:25;;;;;;;4.38;1.10;;;;;;;14.60;90.31;96538.50;5075169;28;20071;-75
2021/07/16 01:57:54;;;;;;;1.45;1.10;;;;;;;14.57;90.50;96532.91;5075834;28;20035;-75
2021/07/16 02:00:24;;;;;;;2.08;0.80;;;;;;;14.56;90.53;96531.31;5075647;28;20040;-75
2021/07/16 02:02:52;;;;;;;1.48;0.90;;;;;;;14.57;90.55;96530.25;5075175;28;20024;-75
2021/07/16 02:05:19;;;;;;;1.30;0.90;;;;;;;14.55;90.72;96525.25;5075597;28;20032;-75
2021/07/16 02:07:50;;;;;;;0.82;0.82;;;;;;;14.54;90.88;96528.09;5075443;28;20480;-75
2021/07/16 02:10:20;;;;;;;1.48;0.88;;;;;;;14.53;91.20;96523.84;5075540;28;20044;-75
2021/07/16 02:12:47;;;;;;;1.15;0.70;;;;;;;14.50;91.06;96519.84;5075798;28;20033;-75
2021/07/16 02:15:16;;;;;;;1.13;0.90;;;;;;;14.51;91.38;96531.19;5056879;28;20045;-75
2021/07/16 02:17:43;;;;;;;1.08;0.95;;;;;;;14.50;91.44;96524.34;5075767;28;20056;-75
2021/07/16 02:20:18;;;;;;;1.10;1.00;;;;;;;14.49;91.92;96518.25;5075152;28;20043;-75
2021/07/16 02:22:45;;;;;;;1.95;1.00;;;;;;;14.50;91.77;96524.34;5074698;28;20041;-75
2021/07/16 02:25:19;;;;;;;0.80;0.80;;;;;;;14.49;91.96;96522.72;5074970;28;20039;-76
2021/07/16 02:27:52;;;;;;;0.90;0.90;;;;;;;14.51;92.36;96533.84;5060335;28;20469;-75
2021/07/16 02:30:19;;;;;;;2.75;1.02;;;;;;;14.51;92.16;96534.66;5074549;28;20040;-75
2021/07/16 02:32:46;;;;;;;1.20;1.10;;;;;;;14.51;92.30;96528.56;5075125;28;20036;-75
2021/07/16 02:35:14;;;;;;;1.08;0.93;;;;;;;14.49;92.38;96523.53;5074830;28;20036;-75
2021/07/16 02:37:41;;;;;;;1.55;1.30;;;;;;;14.49;92.57;96523.53;5073942;28;20052;-75
2021/07/16 02:40:08;;;;;;;1.20;1.10;;;;;;;14.48;92.69;96529.84;5075069;28;20037;-75
2021/07/16 02:42:34;;;;;;;2.05;1.10;;;;;;;14.44;92.68;96528.72;5074789;28;20037;-75
2021/07/16 02:45:09;;;;;;;0.98;0.82;;;;;;;14.41;93.16;96531.84;5074457;28;20048;-75
2021/07/16 02:47:36;;;;;;;0.93;0.93;;;;;;;14.40;93.06;96527.59;5074307;28;20040;-75
2021/07/16 02:50:08;;;;;;;1.98;1.23;;;;;;;14.36;93.38;96535.22;5074216;28;20048;-75
2021/07/16 02:52:34;;;;;;;1.45;1.00;;;;;;;14.32;93.21;96534.09;5074588;28;20032;-75
2021/07/16 02:55:01;;;;;;;1.10;1.10;;;;;;;14.31;93.40;96536.97;5073657;28;20060;-75
2021/07/16 02:57:30;;;;;;;1.02;1.02;;;;;;;14.28;93.44;96532.97;5074116;28;20036;-75
2021/07/16 02:59:56;;;;;;;0.90;0.90;;;;;;;14.27;93.88;96535.84;5074340;28;20052;-75
2021/07/16 03:02:27;;;;;;;1.08;0.90;;;;;;;14.25;94.30;96540.56;5074723;28;20473;-75
2021/07/16 03:04:53;;;;;;;0.93;0.90;;;;;;;14.25;94.09;96538.72;5074399;28;20063;-76
2021/07/16 03:07:19;;;;;;;7.63;1.17;;;;;;;14.25;94.25;96538.72;5074249;28;20024;-75
2021/07/16 03:09:45;;;;;;;1.02;0.82;;;;;;;14.24;94.32;96534.47;5074189;28;20051;-74
2021/07/16 03:12:12;;;;;;;1.20;1.20;;;;;;;14.22;94.40;96536.56;5073237;28;20041;-74
2021/07/16 03:14:39;;;;;;;1.10;1.00;;;;;;;14.20;94.58;96543.91;5074130;28;20056;-75
2021/07/16 03:17:06;;;;;;;2.03;1.08;;;;;;;14.20;94.90;96546.56;5074331;28;20044;-75
2021/07/16 03:19:32;;;;;;;2.33;1.20;;;;;;;14.17;94.84;96544.38;5074137;28;20039;-75
2021/07/16 03:21:59;;;;;;;1.95;1.10;;;;;;;14.16;95.00;96548.06;5074175;28;20032;-75
2021/07/16 03:24:28;;;;;;;1.20;1.10;;;;;;;14.15;95.26;96541.16;5073087;28;20052;-75
2021/07/16 03:26:55;;;;;;;3.38;1.20;;;;;;;14.14;95.50;96535.09;5072723;28;20036;-75
2021/07/16 03:29:21;;;;;;;1.80;1.20;;;;;;;14.15;95.38;96551.72;5073845;28;20453;-75
2021/07/16 03:31:50;;;;;;;1.48;1.10;;;;;;;14.15;95.48;96544.63;5073908;28;20392;-75
2021/07/16 03:34:21;;;;;;;1.20;1.10;;;;;;;14.17;95.50;96539.09;5073739;28;20032;-75
2021/07/16 03:36:47;;;;;;;1.10;1.00;;;;;;;14.18;95.43;96533.59;5073304;28;20036;-75
2021/07/16 03:39:13;;;;;;;1.45;1.20;;;;;;;14.20;95.30;96536.00;5073485;28;20039;-75
2021/07/16 03:41:42;;;;;;;1.00;1.00;;;;;;;14.19;95.38;96537.03;5072463;28;20044;-75
2021/07/16 03:44:11;;;;;;;1.75;1.17;;;;;;;14.20;95.32;96534.16;5073471;28;20039;-75
2021/07/16 03:46:39;;;;;;;1.58;0.90;;;;;;;14.21;95.28;96532.31;5073560;28;20059;-75
2021/07/16 03:49:06;;;;;;;2.45;1.25;;;;;;;14.23;95.11;96535.50;5073795;28;20036;-75
2021/07/16 03:51:34;;;;;;;2.00;1.10;;;;;;;14.27;95.02;96541.13;5073642;28;20393;-75
2021/07/16 03:54:01;;;;;;;1.83;1.10;;;;;;;14.28;94.89;96546.16;5073093;28;20477;-76
2021/07/16 03:56:29;;;;;;;1.20;1.00;;;;;;;14.30;94.90;96551.19;5073697;28;20044;-75
2021/07/16 03:58:58;;;;;;;2.88;1.10;;;;;;;14.30;94.60;96548.53;5072606;28;20052;-75
2021/07/16 04:01:25;;;;;;;2.25;1.02;;;;;;;14.29;94.28;96558.31;5073539;28;20033;-75
2021/07/16 04:03:51;;;;;;;1.58;0.90;;;;;;;14.28;94.22;96555.88;5073129;28;20032;-75
2021/07/16 04:06:18;;;;;;;0.80;0.80;;;;;;;14.27;94.20;96557.72;5072613;28;20036;-75
2021/07/16 04:08:45;;;;;;;1.05;0.95;;;;;;;14.27;94.02;96555.09;5073332;28;20048;-75
2021/07/16 04:11:11;;;;;;;1.45;1.00;;;;;;;14.28;93.85;96559.34;5073632;28;20039;-75
2021/07/16 04:13:37;;;;;;;0.95;0.90;;;;;;;14.26;93.73;96560.59;5073665;28;20035;-75
2021/07/16 04:16:03;;;;;;;1.10;0.65;;;;;;;14.25;93.58;96559.03;5073824;28;20052;-75
2021/07/16 04:18:29;;;;;;;0.90;0.90;;;;;;;14.25;93.45;96566.94;5073305;28;20047;-75
2021/07/16 04:20:56;;;;;;;1.13;1.13;;;;;;;14.24;93.49;96563.50;5073463;28;20116;-75
2021/07/16 04:23:22;;;;;;;1.17;1.10;;;;;;;14.24;93.51;96566.13;5055153;28;20041;-75
2021/07/16 04:25:49;;;;;;;1.05;1.05;;;;;;;14.27;93.60;96575.41;5073291;28;20040;-76
2021/07/16 04:28:15;;;;;;;1.10;1.10;;;;;;;14.27;93.42;96578.84;5073230;28;20048;-75
2021/07/16 04:30:41;;;;;;;0.98;0.98;;;;;;;14.28;93.42;96575.19;5072848;28;20051;-75
2021/07/16 04:33:09;;;;;;;1.02;1.02;;;;;;;14.31;93.38;96571.25;5073094;28;20035;-75
2021/07/16 04:35:35;;;;;;;1.13;1.10;;;;;;;14.32;93.39;96567.56;5073047;28;20033;-75
2021/07/16 04:38:01;;;;;;;1.25;1.25;;;;;;;14.35;93.47;96569.75;5073023;28;20028;-75
2021/07/16 04:40:27;;;;;;;1.92;1.00;;;;;;;14.38;93.29;96566.63;5072743;28;20045;-75
2021/07/16 04:42:55;;;;;;;1.05;1.05;;;;;;;14.42;93.33;96567.75;5072336;28;20047;-75
2021/07/16 04:45:22;;;;;;;1.30;1.30;;;;;;;14.47;93.39;96572.28;5073220;28;20388;-75
2021/07/16 04:47:48;;;;;;;1.35;1.27;;;;;;;14.55;93.67;96569.25;5073296;28;20473;-75
2021/07/16 04:50:16;;;;;;;1.90;1.30;;;;;;;14.63;93.59;96578.66;5072934;28;20056;-75
2021/07/16 04:52:48;;;;;;;2.88;1.30;;;;;;;14.71;93.04;96580.91;5072970;28;20134;-75
2021/07/16 04:55:15;;;;;;;2.35;1.17;;;;;;;14.88;93.06;96567.69;5073356;28;20056;-75
2021/07/16 04:57:41;;;;;;;3.30;1.17;;;;;;;15.18;93.04;96569.94;5072929;28;20473;-75
2021/07/16 05:00:10;;;;;;;1.77;1.30;;;;;;;15.56;92.83;96570.94;5072990;28;20384;-75
2021/07/16 05:02:36;;;;;;;1.90;1.10;;;;;;;15.93;92.15;96580.94;5073165;28;20368;-75
2021/07/16 05:05:03;;;;;;;3.53;1.23;;;;;;;16.24;91.00;96576.75;5071619;28;20465;-75
2021/07/16 05:07:30;;;;;;;2.25;1.17;;;;;;;16.48;89.82;96577.19;5072622;28;20036;-75
2021/07/16 05:09:57;;;;;;;1.40;1.05;;;;;;;16.75;89.04;96574.50;5072997;28;20040;-75
2021/07/16 05:12:23;;;;;;;4.28;1.23;;;;;;;17.04;88.38;96580.28;5072711;28;20033;-75
2021/07/16 05:14:49;;;;;;;1.08;0.93;;;;;;;17.21;86.79;96584.63;5072787;28;20037;-75
2021/07/16 05:17:15;;;;;;;1.75;1.23;;;;;;;17.08;85.49;96585.09;5072405;28;20056;-75
2021/07/16 05:19:41;;;;;;;2.03;1.40;;;;;;;16.81;84.75;96592.06;5072743;28;20082;-75
2021/07/16 05:22:07;;;;;;;3.90;1.20;;;;;;;16.56;84.68;96599.78;5072788;28;20033;-75
2021/07/16 05:24:34;;;;;;;3.70;1.45;;;;;;;16.43;85.26;96598.34;5072487;28;20040;-75
2021/07/16 05:27:00;;;;;;;1.65;1.27;;;;;;;16.26;85.25;96609.03;5075267;28;20032;-75
2021/07/16 05:29:26;;;;;;;1.23;1.13;;;;;;;16.05;85.54;96605.41;5075696;28;20048;-75
2021/07/16 05:31:52;;;;;;;1.00;1.00;;;;;;;15.94;86.17;96614.28;5076112;28;20032;-75
2021/07/16 05:34:18;;;;;;;1.40;1.40;;;;;;;15.85;86.53;96611.25;5076094;28;20059;-76
2021/07/16 05:36:44;;;;;;;1.23;1.05;;;;;;;15.77;86.90;96614.31;5074665;28;20047;-75
2021/07/16 05:39:10;;;;;;;1.30;1.20;;;;;;;15.75;87.45;96613.78;5076067;28;20384;-75
2021/07/16 05:41:36;;;;;;;1.33;1.23;;;;;;;15.75;87.73;96616.44;5076082;28;20032;-76
2021/07/16 05:44:03;;;;;;;1.38;1.38;;;;;;;15.75;88.02;96624.38;5075056;28;20059;-75
2021/07/16 05:46:31;;;;;;;1.48;1.38;;;;;;;15.74;87.99;96625.41;5075752;28;20040;-76
2021/07/16 05:48:59;;;;;;;1.33;1.20;;;;;;;15.86;88.07;96625.28;5076037;28;20396;-75
2021/07/16 05:51:25;;;;;;;2.38;1.30;;;;;;;15.97;88.15;96624.34;5075560;28;20045;-76
2021/07/16 05:53:51;;;;;;;1.00;1.00;;;;;;;16.08;88.21;96635.84;5075937;28;20380;-75
2021/07/16 05:56:18;;;;;;;2.38;1.10;;;;;;;16.13;87.92;96631.41;5074851;28;20049;-76
2021/07/16 05:58:44;;;;;;;1.98;1.30;;;;;;;16.18;87.75;96631.44;5075563;28;20033;-76
2021/07/16 06:01:10;;;;;;;2.70;1.30;;;;;;;16.30;87.76;96633.97;5075704;28;20041;-75
2021/07/16 06:03:37;;;;;;;1.35;1.30;;;;;;;16.33;87.32;96633.44;5075503;28;20033;-75
2021/07/16 06:06:03;;;;;;;3.58;1.45;;;;;;;16.33;87.47;96636.09;5074693;28;20084;-75
2021/07/16 06:08:29;;;;;;;2.05;1.60;;;;;;;16.31;87.54;96630.25;5074147;28;20063;-75
2021/07/16 06:10:56;;;;;;;3.65;1.33;;;;;;;16.28;87.40;96637.91;5074816;28;20047;-76
2021/07/16 06:13:27;;;;;;;2.85;1.38;;;;;;;16.33;87.89;96637.94;5074267;28;20033;-75
2021/07/16 06:15:53;;;;;;;2.15;1.10;;;;;;;16.45;88.12;96643.91;5075518;28;20036;-75
2021/07/16 06:18:22;;;;;;;3.97;1.38;;;;;;;16.58;87.81;96642.69;5075458;28;20044;-76
2021/07/16 06:20:49;;;;;;;1.25;1.15;;;;;;;16.67;87.55;96653.63;5074878;28;20044;-75
2021/07/16 06:23:16;;;;;;;2.55;1.20;;;;;;;16.73;87.34;96650.75;5074004;28;20040;-75
2021/07/16 06:25:43;;;;;;;4.15;1.50;;;;;;;16.72;87.09;96654.47;5074980;28;20041;-75
2021/07/16 06:28:09;;;;;;;1.27;1.15;;;;;;;16.68;86.85;96656.03;5074848;28;20047;-75
2021/07/16 06:30:36;;;;;;;2.42;1.30;;;;;;;16.65;87.30;96648.56;5074568;28;20048;-75
2021/07/16 06:33:02;;;;;;;2.95;1.48;;;;;;;16.54;87.11;96650.31;5073771;28;20049;-76
2021/07/16 06:35:28;;;;;;;1.60;1.48;;;;;;;16.38;87.21;96649.41;5073644;28;20045;-76
2021/07/16 06:37:54;;;;;;;1.60;1.45;;;;;;;16.31;87.99;96666.50;5074332;28;20028;-75
2021/07/16 06:40:20;;;;;;;3.17;1.65;;;;;;;16.29;88.35;96664.09;5040234;28;20052;-75
2021/07/16 06:42:46;;;;;;;2.42;1.52;;;;;;;16.27;88.53;96666.19;5074962;28;20028;-76
2021/07/16 06:45:12;;;;;;;2.97;1.70;;;;;;;16.23;88.71;96662.44;5074827;28;20040;-75
2021/07/16 06:47:39;;;;;;;3.00;1.70;;;;;;;16.16;88.64;96662.66;5073209;28;20048;-76
2021/07/16 06:50:07;;;;;;;3.10;1.90;;;;;;;16.13;89.00;96665.81;5074572;28;20052;-76
2021/07/16 06:52:33;;;;;;;1.83;1.70;;;;;;;16.23;89.66;96657.16;5075179;28;20043;-75
2021/07/16 06:55:00;;;;;;;2.50;1.52;;;;;;;16.59;89.72;96673.44;5074819;28;20480;-76
2021/07/16 06:57:26;;;;;;;2.25;1.60;;;;;;;17.00;89.19;96669.28;5059557;28;20033;-75
2021/07/16 06:59:52;;;;;;;1.67;1.40;;;;;;;17.16;87.53;96666.78;5074765;28;20040;-75
2021/07/16 07:02:18;;;;;;;1.40;1.40;;;;;;;17.20;86.73;96673.97;5073449;28;20049;-75
2021/07/16 07:04:44;;;;;;;2.25;1.80;;;;;;;17.34;86.63;96674.28;5074271;28;20028;-75
2021/07/16 07:07:11;;;;;;;1.30;1.13;;;;;;;17.51;85.84;96676.78;5074476;28;20040;-75
2021/07/16 07:09:37;;;;;;;1.55;1.40;;;;;;;17.97;85.95;96685.00;5073104;28;20385;-75
2021/07/16 07:12:03;;;;;;;1.33;1.27;;;;;;;18.39;84.36;96672.69;5074332;28;20472;-75
2021/07/16 07:14:29;;;;;;;1.55;1.40;;;;;;;18.73;83.34;96677.50;5074144;28;20032;-76
2021/07/16 07:16:55;;;;;;;1.30;1.17;;;;;;;18.92;81.66;96675.97;5074132;28;20047;-75
2021/07/16 07:19:21;;;;;;;0.88;0.85;;;;;;;18.98;81.51;96674.91;5073981;28;20035;-75
2021/07/16 07:21:48;;;;;;;1.42;1.20;;;;;;;18.92;80.59;96688.44;5073145;28;20055;-75
2021/07/16 07:24:14;;;;;;;2.35;1.55;;;;;;;18.73;80.15;96696.94;5072938;28;20043;-75
2021/07/16 07:26:40;;;;;;;1.00;1.00;;;;;;;18.63;80.88;96688.94;5074074;28;20404;-76
2021/07/16 07:29:06;;;;;;;1.10;1.10;;;;;;;18.92;81.12;96685.78;5073948;28;20039;-75
2021/07/16 07:31:33;;;;;;;1.40;1.30;;;;;;;19.16;80.84;96688.72;5073025;28;20047;-75
2021/07/16 07:34:00;;;;;;;2.08;1.20;;;;;;;19.25;79.72;96689.78;5074338;28;20041;-75
2021/07/16 07:36:26;;;;;;;1.13;1.13;;;;;;;19.05;79.21;96688.72;5073638;28;20048;-75
2021/07/16 07:38:52;;;;;;;1.23;1.00;;;;;;;18.92;79.37;96693.75;5073780;28;20036;-75
2021/07/16 07:41:19;;;;;;;1.08;1.08;;;;;;;19.19;79.60;96696.16;5074026;28;20465;-75
2021/07/16 07:43:45;;;;;;;1.73;1.02;;;;;;;19.47;79.01;96689.50;5073704;28;20384;-75
2021/07/16 07:46:13;;;;;;;0.95;0.95;;;;;;;19.90;77.93;96689.16;5073064;28;20507;-76
2021/07/16 07:48:41;;;;;;;1.08;1.00;;;;;;;20.11;76.83;96688.00;5073134;28;20056;-75
2021/07/16 07:51:07;;;;;;;1.17;1.10;;;;;;;20.43;75.74;96692.91;5073832;28;20057;-75
2021/07/16 07:53:33;;;;;;;1.13;1.10;;;;;;;20.97;74.79;96696.56;5073354;28;20043;-75
2021/07/16 07:55:59;;;;;;;0.90;0.90;;;;;;;21.46;73.28;96689.53;5072774;28;20388;-75
2021/07/16 07:58:25;;;;;;;0.77;0.77;;;;;;;21.82;71.69;96695.31;5073566;28;20032;-75
2021/07/16 08:00:52;;;;;;;0.88;0.73;;;;;;;21.65;70.40;96697.63;5073689;28;20040;-75
2021/07/16 08:03:18;;;;;;;0.98;0.98;;;;;;;21.23;70.25;96699.03;5073415;28;20035;-75
2021/07/16 08:05:47;;;;;;;0.77;0.77;;;;;;;20.84;70.78;96697.22;5072654;28;20059;-75
2021/07/16 08:08:13;;;;;;;0.82;0.82;;;;;;;20.54;71.11;96706.19;5073374;28;20037;-75
2021/07/16 08:10:39;;;;;;;0.70;0.70;;;;;;;20.21;71.55;96705.81;5073591;28;20037;-75
2021/07/16 08:13:05;;;;;;;0.80;0.80;;;;;;;19.93;72.14;96707.22;5073715;28;20033;-75
2021/07/16 08:15:32;;;;;;;1.65;0.90;;;;;;;19.69;72.80;96707.81;5073484;28;20400;-76
2021/07/16 08:17:58;;;;;;;0.88;0.88;;;;;;;19.46;73.30;96707.34;5072808;28;20487;-75
2021/07/16 08:20:24;;;;;;;0.90;0.90;;;;;;;19.29;73.80;96708.66;5073247;28;20054;-75
2021/07/16 08:22:50;;;;;;;1.25;1.00;;;;;;;19.16;74.35;96710.78;5072080;28;20033;-75
2021/07/16 08:25:16;;;;;;;0.95;0.95;;;;;;;19.11;74.45;96702.81;5072755;28;20052;-75
2021/07/16 08:27:44;;;;;;;1.38;0.82;;;;;;;19.18;74.89;96700.69;5073123;28;20047;-75
2021/07/16 08:30:10;;;;;;;0.63;0.63;;;;;;;19.66;74.71;96701.16;5073233;28;20044;-75
2021/07/16 08:32:37;;;;;;;0.80;0.80;;;;;;;20.11;73.87;96703.97;5073053;28;20716;-75
2021/07/16 08:35:06;;;;;;;0.90;0.90;;;;;;;20.17;72.87;96707.41;5072480;28;20052;-75
2021/07/16 08:37:34;;;;;;;1.05;0.70;;;;;;;20.13;72.69;96717.03;5073013;28;20040;-75
2021/07/16 08:40:00;;;;;;;0.70;0.70;;;;;;;20.06;72.89;96706.66;5071967;28;20036;-75
2021/07/16 08:42:28;;;;;;;0.73;0.73;;;;;;;20.16;72.60;96705.81;5073011;28;20028;-75
2021/07/16 08:44:54;;;;;;;1.00;0.82;;;;;;;20.46;72.10;96713.66;5073016;28;20036;-75
2021/07/16 08:47:21;;;;;;;0.73;0.73;;;;;;;20.87;71.56;96709.97;5072857;28;20041;-76
2021/07/16 08:49:47;;;;;;;0.77;0.77;;;;;;;21.19;70.16;96703.38;5072926;28;20040;-75
2021/07/16 08:52:13;;;;;;;0.98;0.93;;;;;;;21.07;69.67;96703.72;5073063;28;20036;-75
2021/07/16 08:54:48;;;;;;;0.80;0.80;;;;;;;20.90;69.27;96713.97;5072586;28;20040;-75
2021/07/16 08:57:18;;;;;;;0.70;0.70;;;;;;;20.82;69.30;96710.81;5072860;28;20052;-75
2021/07/16 08:59:45;;;;;;;0.90;0.90;;;;;;;21.13;68.98;96713.28;5073372;28;20020;-75
2021/07/16 09:02:11;;;;;;;0.75;0.70;;;;;;;21.33;68.40;96708.84;5075515;28;20469;-76
2021/07/16 09:04:38;;;;;;;0.60;0.60;;;;;;;21.52;68.15;96714.28;5077136;28;20408;-75
2021/07/16 09:07:05;;;;;;;0.60;0.60;;;;;;;21.55;67.66;96706.53;5076542;28;20025;-76
2021/07/16 09:09:36;;;;;;;0.60;0.60;;;;;;;21.72;67.13;96699.97;5076669;28;20036;-75
2021/07/16 09:12:10;;;;;;;0.75;0.75;;;;;;;21.75;66.07;96710.84;5076744;28;20045;-75
2021/07/16 09:14:36;;;;;;;0.85;0.82;;;;;;;21.82;66.61;96707.88;5076457;28;20029;-75
2021/07/16 09:17:11;;;;;;;0.82;0.82;;;;;;;21.88;65.83;96702.19;5076467;28;20070;-75
2021/07/16 09:19:38;;;;;;;;;;;;;;;21.71;64.72;96701.03;5076875;28;20032;-75
2021/07/16 09:22:08;;;;;;;0.80;0.80;;;;;;;21.87;66.03;96707.81;5076408;28;19908;-75
2021/07/16 09:24:40;;;;;;;0.60;0.60;;;;;;;22.20;65.78;96700.75;5076248;28;20040;-75
2021/07/16 09:27:30;;;;;;;1.30;0.70;;;;;;;22.23;63.46;96689.50;5075979;28;20048;-76
2021/07/16 09:30:35;;;;;;;0.68;0.65;;;;;;;22.31;63.14;96695.31;5076261;28;20040;-75
2021/07/16 09:33:09;;;;;;;0.77;0.77;;;;;;;22.25;63.72;96702.56;5045880;28;20037;-75
2021/07/16 09:35:39;;;;;;;0.60;0.60;;;;;;;21.92;64.01;96704.28;5053793;28;20052;-77
2021/07/16 09:38:07;;;;;;;0.65;0.65;;;;;;;21.64;64.11;96702.16;5060390;28;20041;-75
2021/07/16 09:40:38;;;;;;;0.80;0.80;;;;;;;21.76;64.67;96709.78;5076074;28;20040;-75
2021/07/16 09:43:04;;;;;;;0.80;0.80;;;;;;;21.79;64.96;96703.06;5076253;28;20469;-75
2021/07/16 09:45:32;;;;;;;0.90;0.90;;;;;;;21.84;64.80;96719.06;5076019;28;20055;-77
2021/07/16 09:48:28;;;;;;;0.82;0.82;;;;;;;22.01;61.80;96683.88;5076079;28;20056;-75
2021/07/16 09:51:25;;;;;;;0.90;0.90;;;;;;;22.22;63.33;96700.47;5075717;28;20456;-75
2021/07/16 09:54:06;;;;;;;0.82;0.82;;;;;;;22.31;63.72;96704.09;5075823;28;20028;-75
2021/07/16 09:56:35;;;;;;;1.00;1.00;;;;;;;22.44;63.53;96700.72;5076197;28;20033;-75
2021/07/16 09:59:10;;;;;;;0.80;0.80;;;;;;;22.62;63.15;96701.81;5075649;28;20033;-76
2021/07/16 10:01:39;;;;;;;0.80;0.80;;;;;;;22.73;62.85;96702.47;5075700;28;20380;-75
2021/07/16 10:04:16;;;;;;;0.80;0.80;;;;;;;22.45;62.40;96709.56;5075069;28;20040;-75
2021/07/16 10:06:50;;;;;;;0.80;0.80;;;;;;;22.09;62.46;96713.44;5076095;28;20052;-76
2021/07/16 10:09:18;;;;;;;0.90;0.90;;;;;;;21.68;63.29;96727.22;5075534;28;20477;-75
2021/07/16 10:11:49;;;;;;;0.85;0.85;;;;;;;21.56;63.92;96726.00;5074703;28;20048;-75
2021/07/16 10:14:16;;;;;;;0.90;0.90;;;;;;;21.79;63.82;96721.78;5075579;28;20040;-75
2021/07/16 10:16:46;;;;;;;0.70;0.70;;;;;;;21.99;64.02;96723.44;5076237;28;20052;-76
2021/07/16 10:19:13;;;;;;;0.85;0.85;;;;;;;21.99;63.75;96724.22;5075763;28;20039;-75
2021/07/16 10:21:40;;;;;;;1.10;0.60;;;;;;;22.19;63.27;96725.06;5075083;28;20508;-75
2021/07/16 10:24:07;;;;;;;0.93;0.70;;;;;;;22.40;62.93;96723.75;5074731;28;20472;-75
2021/07/16 10:26:34;;;;;;;0.40;0.40;;;;;;;22.59;61.99;96714.97;5075025;28;20461;-75
2021/07/16 10:29:00;;;;;;;0.50;0.50;;;;;;;22.63;61.39;96705.28;5075114;28;20457;-75
2021/07/16 10:31:29;;;;;;;0.63;0.50;;;;;;;22.65;60.00;96703.13;5074629;28;20104;-75
2021/07/16 10:33:56;;;;;;;0.50;0.50;;;;;;;22.75;60.39;96711.00;5073187;28;20040;-75
2021/07/16 10:36:38;;;;;;;0.50;0.50;;;;;;;22.85;58.94;96684.09;5074947;28;20037;-75
2021/07/16 10:39:06;;;;;;;1.33;0.57;;;;;;;23.08;59.35;96689.66;5064681;28;20054;-76
2021/07/16 10:41:37;;;;;;;0.38;0.38;;;;;;;23.35;59.04;96690.81;5059238;28;20029;-75
2021/07/16 10:44:05;;;;;;;1.48;0.40;;;;;;;23.39;58.23;96684.59;5073929;28;20048;-76
2021/07/16 10:46:37;;;;;;;0.50;0.50;;;;;;;23.34;57.65;96687.34;5073791;28;20040;-75
2021/07/16 10:49:06;;;;;;;1.30;0.40;;;;;;;23.20;57.85;96694.53;5074967;28;20040;-75
2021/07/16 10:51:34;;;;;;;0.45;0.45;;;;;;;23.08;58.05;96698.47;5074731;28;20473;-75
2021/07/16 10:54:09;;;;;;;1.42;0.50;;;;;;;22.88;57.35;96694.19;5074550;28;20036;-75
2021/07/16 10:56:48;;;;;;;0.75;0.40;;;;;;;22.70;58.14;96701.16;5074512;28;20028;-75
2021/07/16 10:59:48;;;;;;;0.50;0.50;;;;;;;22.54;57.44;96709.69;5073745;28;20048;-75
2021/07/16 11:02:42;;;;;;;0.30;0.30;;;;;;;22.39;58.40;96716.81;5068047;28;20049;-75
2021/07/16 11:05:32;;;;;;;0.57;0.38;;;;;;;22.36;58.69;96708.59;5074292;28;20032;-75
2021/07/16 11:07:59;;;;;;;0.35;0.35;;;;;;;22.33;58.72;96717.97;5074786;28;20361;-75
2021/07/16 11:10:46;;;;;;;0.45;0.32;;;;;;;22.33;58.80;96723.31;5072687;28;20040;-75
2021/07/16 11:13:39;;;;;;;0.47;0.40;;;;;;;22.33;58.80;96717.19;5074333;28;20032;-75
2021/07/16 11:16:14;;;;;;;0.30;0.30;;;;;;;22.34;58.80;96722.22;5067727;28;20048;-75
2021/07/16 11:18:55;;;;;;;1.27;0.20;;;;;;;22.38;57.48;96712.53;5074150;28;20032;-75
2021/07/16 11:21:39;;;;;;;0.20;0.20;;;;;;;22.20;57.14;96711.41;5074012;28;20037;-75
2021/07/16 11:24:19;;;;;;;0.50;0.50;;;;;;;21.98;58.54;96717.28;5074147;28;20044;-75
2021/07/16 11:27:00;;;;;;;0.40;0.40;;;;;;;22.19;59.34;96725.06;5073802;28;20044;-76
2021/07/16 11:29:34;;;;;;;0.40;0.40;;;;;;;22.66;58.19;96702.03;5073933;28;20052;-75
2021/07/16 11:32:05;;;;;;;;;;;;;;;23.00;55.76;96674.25;5063618;28;20040;-76
2021/07/16 11:34:32;;;;;;;0.43;0.43;;;;;;;22.81;56.76;96688.44;5063029;28;19908;-75
2021/07/16 11:36:58;;;;;;;0.40;0.40;;;;;;;22.74;57.13;96700.56;5073308;28;20436;-75
2021/07/16 11:39:38;;;;;;;0.65;0.20;;;;;;;22.70;57.07;96698.50;5072985;28;20044;-75
2021/07/16 11:42:07;;;;;;;0.30;0.30;;;;;;;22.72;57.63;96700.88;5073178;28;20049;-75